Sect Arenales, Puerto Rico
Current Conditions -  °F | °C
As of 8:56 PM on Friday 28 Nov 2014 (Local Time) from TJSJ Reporting Station
Clear Clear  
Wind Chill: 78°   Ceiling: Unl
Heat Index: 80°   Visibility: 10mi
Dew Point: 69°   Wind: 0mph
Humidity: 74%   Direction: NA
Pressure: 29.98"   Gusts: NA
Location:  18.4061°N, 66.3012°W
Report Text: TJSJ 290056Z 00000KT 10SM CLR 26/21 A2998 RMK AO2 SLP150 T02560206
Loading
Personal Weather Stations






























Interactive Weather Map New forecast layout! Learn more

10-Day Weather Forecast

Advertisements
Track Severe Weather on mobile